createdAt,value
2023-07-25T00:01:14.168Z,5.85
2023-07-25T00:03:16.930Z,7.22
2023-07-25T00:05:19.719Z,5.88
2023-07-25T00:07:22.467Z,6.50
2023-07-25T00:09:25.170Z,4.82
2023-07-25T00:11:27.864Z,5.85
2023-07-25T00:13:30.960Z,4.85
2023-07-25T00:15:33.702Z,4.78
2023-07-25T00:17:36.430Z,6.20
2023-07-25T00:19:39.152Z,5.22
2023-07-25T00:21:41.026Z,5.28
2023-07-25T00:23:43.813Z,6.38
2023-07-25T00:25:46.551Z,4.82
2023-07-25T00:27:49.343Z,4.55
2023-07-25T00:29:54.739Z,5.25
2023-07-25T00:31:57.692Z,5.55
2023-07-25T00:34:00.480Z,5.50
2023-07-25T00:36:03.630Z,7.20
2023-07-25T00:38:06.388Z,5.25
2023-07-25T00:40:10.002Z,4.80
2023-07-25T00:42:11.776Z,5.68
2023-07-25T00:44:14.403Z,7.18
2023-07-25T00:46:19.107Z,6.07
2023-07-25T00:48:21.064Z,5.55
2023-07-25T00:50:23.902Z,5.82
2023-07-25T00:52:27.290Z,5.10
2023-07-25T00:54:29.018Z,6.20
2023-07-25T00:56:31.752Z,5.45
2023-07-25T00:58:34.509Z,6.93
2023-07-25T01:00:39.267Z,5.63
2023-07-25T01:02:43.473Z,6.50
2023-07-25T01:04:46.253Z,7.00
2023-07-25T01:06:50.016Z,6.80
2023-07-25T01:08:54.876Z,5.50
2023-07-25T01:10:57.562Z,5.78
2023-07-25T01:13:00.361Z,5.05
2023-07-25T01:15:03.284Z,6.32
2023-07-25T01:17:09.384Z,6.47
2023-07-25T01:19:13.556Z,5.50
2023-07-25T01:21:16.568Z,5.80
2023-07-25T01:23:20.533Z,4.97
2023-07-25T01:25:24.706Z,5.50
2023-07-25T01:27:27.395Z,5.18
2023-07-25T01:29:29.186Z,4.85
2023-07-25T01:31:32.125Z,5.13
2023-07-25T01:33:35.061Z,5.97
2023-07-25T01:35:37.803Z,6.82
2023-07-25T01:37:40.508Z,5.15
2023-07-25T01:39:44.911Z,5.50
2023-07-25T01:41:48.934Z,5.30
2023-07-25T01:43:51.626Z,5.90
2023-07-25T01:45:54.427Z,5.13
2023-07-25T01:47:58.227Z,5.72
2023-07-25T01:50:01.023Z,5.10
2023-07-25T01:52:03.831Z,5.97
2023-07-25T01:54:06.656Z,6.00
2023-07-25T01:56:09.363Z,8.65
2023-07-25T01:58:13.383Z,5.82
2023-07-25T02:00:15.447Z,5.82
2023-07-25T02:02:18.357Z,4.90
2023-07-25T02:04:21.184Z,5.07
2023-07-25T02:06:23.016Z,6.15
2023-07-25T02:08:25.694Z,5.70
2023-07-25T02:10:28.832Z,6.57
2023-07-25T02:12:31.721Z,7.15
2023-07-25T02:14:35.822Z,5.65
2023-07-25T02:16:38.960Z,5.68
2023-07-25T02:18:41.764Z,6.65
2023-07-25T02:20:44.435Z,6.57
2023-07-25T02:22:47.098Z,6.47
2023-07-25T02:24:49.842Z,8.13
2023-07-25T02:26:52.757Z,6.38
2023-07-25T02:28:55.434Z,7.10
2023-07-25T02:30:58.660Z,6.00
2023-07-25T02:33:01.377Z,5.82
2023-07-25T02:35:04.282Z,6.55
2023-07-25T02:37:06.539Z,6.03
2023-07-25T02:39:09.669Z,6.20
2023-07-25T02:41:12.374Z,6.07
2023-07-25T02:43:15.049Z,6.20
2023-07-25T02:45:17.987Z,5.95
2023-07-25T02:47:22.040Z,5.70
2023-07-25T02:49:23.749Z,5.80
2023-07-25T02:51:26.480Z,6.00
2023-07-25T02:53:29.129Z,5.32
2023-07-25T02:55:31.897Z,6.88
2023-07-25T02:57:34.632Z,8.85
2023-07-25T02:59:37.379Z,7.22
2023-07-25T03:01:40.093Z,6.80
2023-07-25T03:03:44.086Z,5.60
2023-07-25T03:05:46.809Z,5.93
2023-07-25T03:07:49.679Z,6.03
2023-07-25T03:09:51.466Z,7.72
2023-07-25T03:11:54.175Z,5.38
2023-07-25T03:13:56.844Z,6.47
2023-07-25T03:15:58.669Z,7.25
2023-07-25T03:18:01.448Z,5.05
2023-07-25T03:20:06.362Z,5.38
2023-07-25T03:22:09.311Z,6.22
2023-07-25T03:24:11.973Z,6.88
2023-07-25T03:26:14.825Z,7.93
2023-07-25T03:28:17.634Z,7.43
2023-07-25T03:30:20.657Z,8.32
2023-07-25T03:32:23.409Z,6.18
2023-07-25T03:34:26.090Z,5.57
2023-07-25T03:36:30.198Z,6.65
2023-07-25T03:38:32.861Z,6.07
2023-07-25T03:40:35.632Z,6.60
2023-07-25T03:42:38.371Z,8.55
2023-07-25T03:44:41.096Z,6.45
2023-07-25T03:46:43.805Z,5.38
2023-07-25T03:48:46.510Z,4.85
2023-07-25T03:50:49.205Z,6.07
2023-07-25T03:52:53.341Z,5.97
2023-07-25T03:54:56.088Z,5.32
2023-07-25T03:56:58.787Z,7.57
2023-07-25T03:59:01.828Z,6.10
2023-07-25T04:01:03.577Z,6.43
2023-07-25T04:03:15.177Z,7.15
2023-07-25T04:05:18.509Z,6.47
2023-07-25T04:07:21.252Z,4.90
2023-07-25T04:09:25.347Z,4.68
2023-07-25T04:11:28.048Z,5.38
2023-07-25T04:13:30.917Z,5.32
2023-07-25T04:15:33.677Z,4.80
2023-07-25T04:17:35.403Z,6.72
2023-07-25T04:19:38.181Z,5.75
2023-07-25T04:21:40.867Z,5.05
2023-07-25T04:23:43.763Z,5.40
2023-07-25T04:25:47.729Z,5.05
2023-07-25T04:27:50.413Z,5.00
2023-07-25T04:29:53.148Z,5.22
2023-07-25T04:31:54.873Z,5.25
2023-07-25T04:33:57.608Z,5.40
2023-07-25T04:36:00.330Z,6.50
2023-07-25T04:38:03.001Z,7.15
2023-07-25T04:40:06.053Z,7.53
2023-07-25T04:42:10.128Z,8.55
2023-07-25T04:44:12.910Z,6.50
2023-07-25T04:46:15.644Z,6.65
2023-07-25T04:48:18.378Z,6.75
2023-07-25T04:50:21.070Z,5.32
2023-07-25T04:52:23.773Z,7.65
2023-07-25T04:54:26.496Z,8.40
2023-07-25T04:56:29.145Z,7.93
2023-07-25T04:58:32.231Z,6.25
2023-07-25T05:00:35.002Z,7.70
2023-07-25T05:02:38.444Z,6.57
2023-07-25T05:04:46.172Z,8.00
2023-07-25T05:06:49.987Z,6.72
2023-07-25T05:08:52.728Z,6.45
2023-07-25T05:10:56.010Z,7.88
2023-07-25T05:12:58.690Z,6.43
2023-07-25T05:15:02.834Z,6.88
2023-07-25T05:17:05.999Z,7.38
2023-07-25T05:19:08.679Z,7.45
2023-07-25T05:21:11.347Z,8.90
2023-07-25T05:23:14.065Z,6.57
2023-07-25T05:25:16.813Z,8.48
2023-07-25T05:27:18.549Z,6.82
2023-07-25T05:29:21.311Z,6.72
2023-07-25T05:31:25.453Z,7.72
2023-07-25T05:33:28.195Z,7.60
2023-07-25T05:35:30.935Z,11.43
2023-07-25T05:37:37.217Z,8.80
2023-07-25T05:39:39.900Z,7.88
2023-07-25T05:41:43.994Z,8.20
2023-07-25T05:43:46.810Z,10.40
2023-07-25T05:45:49.482Z,8.98
2023-07-25T05:47:53.518Z,6.97
2023-07-25T05:49:56.508Z,6.78
2023-07-25T05:51:59.214Z,6.88
2023-07-25T05:54:01.871Z,7.28
2023-07-25T05:56:04.878Z,6.90
2023-07-25T05:58:07.640Z,7.60
2023-07-25T06:00:11.174Z,7.65
2023-07-25T06:02:13.011Z,7.72
2023-07-25T06:04:17.092Z,6.93
2023-07-25T06:06:19.752Z,8.57
2023-07-25T06:08:22.410Z,7.55
2023-07-25T06:10:25.212Z,7.32
2023-07-25T06:12:27.984Z,8.13
2023-07-25T06:14:30.935Z,7.00
2023-07-25T06:16:32.874Z,7.18
2023-07-25T06:18:35.610Z,8.30
2023-07-25T06:20:39.666Z,7.25
2023-07-25T06:22:42.385Z,9.10
2023-07-25T06:24:45.394Z,7.45
2023-07-25T06:26:48.113Z,8.82
2023-07-25T06:28:52.139Z,6.65
2023-07-25T06:30:54.936Z,6.28
2023-07-25T06:32:57.886Z,6.82
2023-07-25T06:35:00.578Z,8.27
2023-07-25T06:37:04.949Z,8.57
2023-07-25T06:39:07.684Z,8.25
2023-07-25T06:41:10.385Z,5.75
2023-07-25T06:43:13.102Z,6.03
2023-07-25T06:45:15.952Z,6.50
2023-07-25T06:47:18.729Z,6.82
2023-07-25T06:49:21.380Z,6.65
2023-07-25T06:51:24.153Z,6.15
2023-07-25T06:53:29.198Z,6.40
2023-07-25T06:55:31.898Z,5.88
2023-07-25T06:57:34.610Z,7.28
2023-07-25T06:59:37.281Z,6.60
2023-07-25T07:01:40.029Z,6.65
2023-07-25T07:03:42.794Z,6.35
2023-07-25T07:05:53.701Z,6.57
2023-07-25T07:07:56.358Z,7.38
2023-07-25T07:10:00.440Z,6.10
2023-07-25T07:12:02.176Z,6.10
2023-07-25T07:14:04.933Z,6.75
2023-07-25T07:16:07.678Z,7.70
2023-07-25T07:18:10.420Z,8.65
2023-07-25T07:20:13.888Z,6.80
2023-07-25T07:22:16.618Z,7.70
2023-07-25T07:24:19.762Z,8.40
2023-07-25T07:26:24.040Z,7.18
2023-07-25T07:28:26.964Z,7.40
2023-07-25T07:30:29.686Z,6.03
2023-07-25T07:32:32.492Z,6.68
2023-07-25T07:34:35.226Z,7.30
2023-07-25T07:36:37.985Z,7.57
2023-07-25T07:38:40.681Z,6.35
2023-07-25T07:40:43.475Z,10.60
2023-07-25T07:42:47.576Z,7.05
2023-07-25T07:44:50.271Z,7.00
2023-07-25T07:46:53.052Z,6.75
2023-07-25T07:48:55.823Z,7.47
2023-07-25T07:51:04.307Z,7.00
2023-07-25T07:53:07.101Z,6.38
2023-07-25T07:55:11.664Z,6.28
2023-07-25T07:57:14.461Z,5.70
2023-07-25T07:59:18.518Z,6.72
2023-07-25T08:01:23.598Z,6.07
2023-07-25T08:03:26.578Z,5.28
2023-07-25T08:05:29.364Z,6.47
2023-07-25T08:07:31.198Z,6.03
2023-07-25T08:09:34.466Z,5.25
2023-07-25T08:11:37.494Z,7.10
2023-07-25T08:13:40.428Z,5.85
2023-07-25T08:15:44.728Z,6.60
2023-07-25T08:17:47.554Z,5.35
2023-07-25T08:19:51.463Z,6.88
2023-07-25T08:21:54.834Z,5.30
2023-07-25T08:23:57.638Z,6.07
2023-07-25T08:26:00.518Z,5.30
2023-07-25T08:28:03.284Z,4.50
2023-07-25T08:30:07.454Z,5.47
2023-07-25T08:32:10.773Z,5.65
2023-07-25T08:34:13.562Z,7.03
2023-07-25T08:36:16.259Z,5.78
2023-07-25T08:38:18.919Z,4.53
2023-07-25T08:40:22.124Z,5.88
2023-07-25T08:42:26.592Z,6.45
2023-07-25T08:44:28.589Z,5.07
2023-07-25T08:46:34.506Z,4.97
2023-07-25T08:48:40.418Z,4.20
2023-07-25T08:50:45.884Z,3.90
2023-07-25T08:52:51.785Z,6.20
2023-07-25T08:54:54.885Z,4.38
2023-07-25T08:56:57.873Z,3.88
2023-07-25T08:59:01.542Z,5.88
2023-07-25T09:01:04.496Z,5.15
2023-07-25T09:03:08.686Z,4.97
2023-07-25T09:05:13.208Z,4.35
2023-07-25T09:07:15.966Z,4.50
2023-07-25T09:09:20.393Z,7.38
2023-07-25T09:11:23.122Z,6.63
2023-07-25T09:13:25.978Z,6.18
2023-07-25T09:15:28.721Z,4.60
2023-07-25T09:17:31.957Z,4.20
2023-07-25T09:19:35.002Z,4.03
2023-07-25T09:21:49.016Z,4.22
2023-07-25T09:23:55.717Z,4.38
2023-07-25T09:26:06.537Z,3.88
2023-07-25T09:28:09.241Z,3.85
2023-07-25T09:30:14.257Z,4.13
2023-07-25T09:32:22.409Z,4.15
2023-07-25T09:34:25.882Z,4.72
2023-07-25T09:36:32.287Z,4.43
2023-07-25T09:40:39.810Z,3.38
2023-07-25T09:42:44.145Z,3.40
2023-07-25T09:44:48.697Z,4.93
2023-07-25T09:46:54.884Z,4.03
2023-07-25T09:48:56.644Z,3.70
2023-07-25T09:50:59.689Z,3.83
2023-07-25T09:53:03.429Z,4.22
2023-07-25T09:55:08.469Z,3.50
2023-07-25T09:57:11.823Z,4.47
2023-07-25T09:59:15.143Z,5.05
2023-07-25T10:01:18.230Z,4.22
2023-07-25T10:03:22.415Z,4.53
2023-07-25T10:05:26.900Z,5.18
2023-07-25T10:07:32.377Z,6.18
2023-07-25T10:09:36.067Z,5.38
2023-07-25T10:11:42.648Z,4.55
2023-07-25T10:13:46.042Z,3.20
2023-07-25T10:15:48.934Z,6.13
2023-07-25T10:17:51.896Z,5.07
2023-07-25T10:19:56.470Z,4.50
2023-07-25T10:21:59.301Z,5.43
2023-07-25T10:24:02.162Z,5.95
2023-07-25T10:26:12.448Z,3.95
2023-07-25T10:28:23.839Z,3.75
2023-07-25T10:30:27.781Z,3.17
2023-07-25T10:32:45.993Z,4.03
2023-07-25T10:34:49.422Z,3.80
2023-07-25T10:37:21.607Z,4.25
2023-07-25T10:39:27.080Z,3.58
2023-07-25T10:41:30.247Z,6.00
2023-07-25T10:43:56.964Z,4.35
2023-07-25T10:46:02.423Z,5.55
2023-07-25T10:48:24.446Z,3.72
2023-07-25T10:50:30.073Z,3.88
2023-07-25T10:52:44.090Z,5.13
2023-07-25T10:55:05.752Z,3.88
2023-07-25T10:57:18.177Z,4.60
2023-07-25T10:59:20.925Z,5.03
2023-07-25T11:01:41.376Z,3.70
2023-07-25T11:03:44.170Z,5.55
2023-07-25T11:05:48.344Z,3.75
2023-07-25T11:07:51.720Z,5.40
2023-07-25T11:09:54.585Z,4.75
2023-07-25T11:11:58.039Z,4.55
2023-07-25T11:14:02.628Z,3.90
2023-07-25T11:16:07.084Z,4.93
2023-07-25T11:18:09.844Z,4.10
2023-07-25T11:20:14.080Z,4.00
2023-07-25T11:22:18.485Z,4.22
2023-07-25T11:24:21.945Z,3.45
2023-07-25T11:26:27.514Z,3.17
2023-07-25T11:28:30.637Z,3.00
2023-07-25T11:30:35.567Z,2.55
2023-07-25T11:32:38.311Z,3.00
2023-07-25T11:34:41.126Z,3.42
2023-07-25T11:36:44.324Z,3.55
2023-07-25T11:38:48.428Z,3.10
2023-07-25T11:40:55.532Z,6.18
2023-07-25T11:42:59.058Z,3.40
2023-07-25T11:45:02.904Z,3.20
2023-07-25T11:47:06.583Z,2.63
2023-07-25T11:49:10.620Z,3.55
2023-07-25T11:51:13.533Z,2.90
2023-07-25T11:53:17.425Z,2.65
2023-07-25T11:55:21.798Z,2.90
2023-07-25T11:57:24.732Z,3.20
2023-07-25T11:59:29.528Z,2.78
2023-07-25T12:01:34.506Z,2.97
2023-07-25T12:03:37.625Z,2.92
2023-07-25T12:05:40.340Z,3.22
2023-07-25T12:07:49.642Z,3.10
2023-07-25T12:09:53.811Z,3.03
2023-07-25T12:11:58.057Z,3.92
2023-07-25T12:14:02.705Z,4.55
2023-07-25T12:16:04.811Z,3.08
2023-07-25T12:18:07.599Z,3.05
2023-07-25T12:20:20.909Z,4.47
2023-07-25T12:22:23.606Z,3.05
2023-07-25T12:24:26.352Z,3.40
2023-07-25T12:26:29.748Z,2.50
2023-07-25T12:28:41.063Z,2.90
2023-07-25T12:30:43.966Z,3.58
2023-07-25T12:32:46.851Z,2.92
2023-07-25T12:34:50.111Z,2.90
2023-07-25T12:36:54.182Z,3.35
2023-07-25T12:38:56.965Z,4.18
2023-07-25T12:41:00.030Z,3.90
2023-07-25T12:43:02.721Z,3.00
2023-07-25T12:45:10.823Z,4.38
2023-07-25T12:47:14.256Z,2.90
2023-07-25T12:49:16.933Z,2.60
2023-07-25T12:51:19.718Z,3.22
2023-07-25T12:53:21.552Z,2.28
2023-07-25T12:55:24.482Z,2.20
2023-07-25T12:57:27.247Z,3.50
2023-07-25T12:59:29.955Z,2.53
2023-07-25T13:01:34.625Z,3.53
2023-07-25T13:03:41.673Z,1.83
2023-07-25T13:05:44.730Z,2.35
2023-07-25T13:07:47.431Z,2.35
2023-07-25T13:09:53.457Z,4.00
2023-07-25T13:11:56.207Z,2.55
2023-07-25T13:13:58.966Z,2.50
2023-07-25T13:16:02.163Z,1.67
2023-07-25T13:18:06.591Z,3.45
2023-07-25T13:20:09.950Z,2.15
2023-07-25T13:22:12.758Z,1.95
2023-07-25T13:24:15.540Z,2.28
2023-07-25T13:26:18.240Z,2.72
2023-07-25T13:28:21.032Z,3.17
2023-07-25T13:30:23.892Z,2.70
2023-07-25T13:32:26.895Z,3.00
2023-07-25T13:34:31.013Z,4.00
2023-07-25T13:36:33.718Z,2.67
2023-07-25T13:38:36.415Z,2.63
2023-07-25T13:40:39.393Z,2.58
2023-07-25T13:42:42.197Z,4.45
2023-07-25T13:44:47.905Z,3.13
2023-07-25T13:46:51.329Z,3.92
2023-07-25T13:48:54.087Z,2.88
2023-07-25T13:50:58.452Z,3.00
2023-07-25T13:53:01.158Z,3.08
2023-07-25T13:55:03.969Z,4.22
2023-07-25T13:57:10.508Z,3.67
2023-07-25T13:59:13.741Z,3.80
2023-07-25T14:01:16.536Z,3.13
2023-07-25T14:03:19.311Z,4.45
2023-07-25T14:05:24.248Z,2.85
2023-07-25T14:07:28.327Z,3.50
2023-07-25T14:09:31.039Z,3.45
2023-07-25T14:11:34.372Z,3.90
2023-07-25T14:13:37.327Z,3.38
2023-07-25T14:15:40.263Z,5.30
2023-07-25T14:17:43.007Z,3.55
2023-07-25T14:19:45.774Z,3.50
2023-07-25T14:21:48.516Z,4.25
2023-07-25T14:23:52.566Z,3.33
2023-07-25T14:25:55.333Z,3.60
2023-07-25T14:27:58.044Z,4.93
2023-07-25T14:30:00.726Z,5.75
2023-07-25T14:32:03.474Z,4.88
2023-07-25T14:34:06.192Z,3.63
2023-07-25T14:36:08.929Z,3.80
2023-07-25T14:38:13.981Z,3.60
2023-07-25T14:40:18.584Z,3.53
2023-07-25T14:42:21.281Z,3.72
2023-07-25T14:44:24.006Z,4.60
2023-07-25T14:46:26.865Z,3.92
2023-07-25T14:48:29.672Z,2.25
2023-07-25T14:50:32.510Z,3.08
2023-07-25T14:52:35.247Z,3.13
2023-07-25T14:54:37.954Z,2.33
2023-07-25T14:56:42.060Z,3.45
2023-07-25T14:58:44.788Z,2.58
2023-07-25T15:00:47.628Z,2.17
2023-07-25T15:02:50.527Z,3.55
2023-07-25T15:04:53.280Z,3.17
2023-07-25T15:06:56.041Z,4.05
2023-07-25T15:08:58.824Z,2.88
2023-07-25T15:11:00.818Z,2.85
2023-07-25T15:13:05.002Z,2.97
2023-07-25T15:15:08.624Z,2.97
2023-07-25T15:17:12.099Z,3.45
2023-07-25T15:19:14.817Z,2.63
2023-07-25T15:21:17.704Z,3.08
2023-07-25T15:23:20.454Z,3.60
2023-07-25T15:25:23.246Z,2.92
2023-07-25T15:27:26.055Z,2.38
2023-07-25T15:29:30.198Z,2.90
2023-07-25T15:31:33.266Z,3.40
2023-07-25T15:33:35.377Z,2.92
2023-07-25T15:35:38.176Z,2.35
2023-07-25T15:37:40.917Z,3.08
2023-07-25T15:39:43.655Z,3.60
2023-07-25T15:41:46.427Z,3.80
2023-07-25T15:43:49.166Z,3.78
2023-07-25T15:45:53.380Z,3.75
2023-07-25T15:47:56.178Z,3.40
2023-07-25T15:49:58.000Z,3.30
2023-07-25T15:52:01.076Z,3.47
2023-07-25T15:54:03.848Z,4.65
2023-07-25T15:56:06.623Z,3.70
2023-07-25T15:58:09.326Z,3.42
2023-07-25T16:00:12.840Z,4.40
2023-07-25T16:02:16.889Z,4.75
2023-07-25T16:04:19.700Z,3.95
2023-07-25T16:06:22.567Z,3.85
2023-07-25T16:08:25.776Z,3.60
2023-07-25T16:10:27.582Z,3.88
2023-07-25T16:12:30.264Z,4.78
2023-07-25T16:14:32.930Z,3.80
2023-07-25T16:16:35.707Z,4.25
2023-07-25T16:18:39.889Z,3.58
2023-07-25T16:20:42.670Z,4.10
2023-07-25T16:22:45.356Z,5.90
2023-07-25T16:24:48.509Z,5.50
2023-07-25T16:26:51.238Z,3.67
2023-07-25T16:28:53.976Z,3.45
2023-07-25T16:31:07.203Z,3.63
2023-07-25T16:33:19.481Z,3.72
2023-07-25T16:35:23.677Z,4.07
2023-07-25T16:37:26.384Z,4.28
2023-07-25T16:39:29.152Z,4.30
2023-07-25T16:41:32.115Z,3.85
2023-07-25T16:43:34.014Z,3.60
2023-07-25T16:45:36.804Z,3.63
2023-07-25T16:47:39.521Z,3.45
2023-07-25T16:49:42.293Z,3.10
2023-07-25T16:51:47.068Z,3.83
2023-07-25T16:53:49.833Z,3.25
2023-07-25T16:55:52.512Z,6.03
2023-07-25T16:57:56.406Z,3.45
2023-07-25T16:59:59.258Z,2.83
2023-07-25T17:02:01.917Z,2.78
2023-07-25T17:04:04.711Z,3.38
2023-07-25T17:06:06.532Z,4.70
2023-07-25T17:08:10.674Z,3.05
2023-07-25T17:10:13.528Z,5.43
2023-07-25T17:12:16.272Z,3.60
2023-07-25T17:14:19.042Z,3.47
2023-07-25T17:16:21.892Z,3.05
2023-07-25T17:18:24.714Z,2.90
2023-07-25T17:20:27.610Z,3.22
2023-07-25T17:22:30.892Z,3.10
2023-07-25T17:24:35.889Z,2.65
2023-07-25T17:26:38.789Z,2.65
2023-07-25T17:28:41.620Z,3.40
2023-07-25T17:30:44.494Z,3.42
2023-07-25T17:32:47.363Z,3.97
2023-07-25T17:34:50.099Z,4.72
2023-07-25T17:36:53.166Z,3.88
2023-07-25T17:38:55.881Z,3.45
2023-07-25T17:41:01.839Z,3.60
2023-07-25T17:43:05.093Z,3.92
2023-07-25T17:45:09.078Z,4.05
2023-07-25T17:47:11.895Z,4.10
2023-07-25T17:49:13.848Z,4.20
2023-07-25T17:51:17.715Z,4.20
2023-07-25T17:53:20.694Z,4.00
2023-07-25T17:55:23.614Z,4.95
2023-07-25T17:57:27.711Z,4.60
2023-07-25T17:59:30.489Z,4.70
2023-07-25T18:01:33.444Z,4.07
2023-07-25T18:03:36.750Z,4.68
2023-07-25T18:05:39.586Z,5.05
2023-07-25T18:07:42.338Z,5.30
2023-07-25T18:09:45.139Z,5.43
2023-07-25T18:11:47.915Z,5.03
2023-07-25T18:13:54.854Z,5.50
2023-07-25T18:15:57.628Z,5.00
2023-07-25T18:18:01.221Z,6.05
2023-07-25T18:20:04.243Z,6.30
2023-07-25T18:22:07.079Z,6.25
2023-07-25T18:24:09.804Z,9.30
2023-07-25T18:26:12.664Z,6.68
2023-07-25T18:28:16.092Z,6.40
2023-07-25T18:30:20.272Z,7.60
2023-07-25T18:32:23.716Z,6.75
2023-07-25T18:34:26.438Z,6.55
2023-07-25T18:36:29.197Z,7.93
2023-07-25T18:38:31.947Z,7.47
2023-07-25T18:40:37.113Z,7.22
2023-07-25T18:42:39.872Z,6.47
2023-07-25T18:44:42.622Z,9.45
2023-07-25T18:46:46.869Z,7.82
2023-07-25T18:48:49.881Z,7.97
2023-07-25T18:50:53.152Z,6.13
2023-07-25T18:52:56.343Z,7.70
2023-07-25T18:54:59.057Z,8.07
2023-07-25T18:57:01.781Z,7.07
2023-07-25T18:59:05.160Z,8.27
2023-07-25T19:01:06.951Z,7.88
2023-07-25T19:03:11.123Z,6.85
2023-07-25T19:05:13.987Z,6.35
2023-07-25T19:07:16.805Z,6.28
2023-07-25T19:09:21.388Z,6.53
2023-07-25T19:11:24.134Z,6.78
2023-07-25T19:13:26.852Z,6.50
2023-07-25T19:15:29.703Z,6.93
2023-07-25T19:17:32.432Z,7.07
2023-07-25T19:19:36.819Z,6.45
2023-07-25T19:21:40.415Z,7.53
2023-07-25T19:23:43.142Z,8.13
2023-07-25T19:25:45.857Z,7.15
2023-07-25T19:27:49.263Z,7.35
2023-07-25T19:29:51.973Z,10.18
2023-07-25T19:31:54.702Z,9.70
2023-07-25T19:33:57.715Z,8.18
2023-07-25T19:36:02.008Z,6.57
2023-07-25T19:38:04.722Z,7.25
2023-07-25T19:40:08.932Z,8.77
2023-07-25T19:42:11.679Z,8.48
2023-07-25T19:44:15.376Z,9.45
2023-07-25T19:46:18.168Z,8.05
2023-07-25T19:48:21.058Z,8.73
2023-07-25T19:50:23.915Z,12.10
2023-07-25T19:52:27.986Z,11.27
2023-07-25T19:54:31.364Z,12.13
2023-07-25T19:56:34.815Z,10.88
2023-07-25T19:58:37.644Z,9.25
2023-07-25T20:00:40.424Z,8.75
2023-07-25T20:02:42.310Z,8.68
2023-07-25T20:04:45.090Z,9.75
2023-07-25T20:06:47.827Z,11.23
2023-07-25T20:08:52.199Z,11.40
2023-07-25T20:10:56.144Z,7.53
2023-07-25T20:12:58.851Z,10.65
2023-07-25T20:15:00.680Z,12.80
2023-07-25T20:17:03.534Z,10.63
2023-07-25T20:19:06.320Z,14.18
2023-07-25T20:21:11.735Z,11.80
2023-07-25T20:23:14.638Z,18.15
2023-07-25T20:25:17.789Z,17.00
2023-07-25T20:27:20.716Z,8.88
2023-07-25T20:29:23.499Z,10.68
2023-07-25T20:31:26.637Z,12.00
2023-07-25T20:33:29.468Z,9.50
2023-07-25T20:35:32.287Z,10.68
2023-07-25T20:37:34.985Z,12.48
2023-07-25T20:39:38.204Z,10.18
2023-07-25T20:41:42.333Z,14.93
2023-07-25T20:43:45.198Z,9.52
2023-07-25T20:45:47.901Z,9.57
2023-07-25T20:47:50.749Z,13.13
2023-07-25T20:49:53.681Z,14.30
2023-07-25T20:51:56.494Z,9.73
2023-07-25T20:53:59.186Z,10.93
2023-07-25T20:56:02.714Z,10.18
2023-07-25T20:58:07.962Z,10.63
2023-07-25T21:00:12.042Z,14.90
2023-07-25T21:02:14.736Z,14.43
2023-07-25T21:04:17.430Z,12.52
2023-07-25T21:06:20.245Z,13.73
2023-07-25T21:08:22.936Z,14.55
2023-07-25T21:10:25.738Z,13.48
2023-07-25T21:12:28.462Z,12.55
2023-07-25T21:14:32.852Z,11.43
2023-07-25T21:16:36.022Z,12.40
2023-07-25T21:18:39.006Z,12.32
2023-07-25T21:20:41.867Z,12.52
2023-07-25T21:22:44.555Z,12.73
2023-07-25T21:24:47.443Z,12.60
2023-07-25T21:26:50.157Z,13.65
2023-07-25T21:28:52.916Z,11.75
2023-07-25T21:30:57.079Z,12.35
2023-07-25T21:32:58.911Z,15.80
2023-07-25T21:35:01.643Z,16.15
2023-07-25T21:37:04.516Z,15.88
2023-07-25T21:39:07.270Z,14.95
2023-07-25T21:41:12.949Z,19.60
2023-07-25T21:43:15.631Z,13.93
2023-07-25T21:45:18.486Z,14.95
2023-07-25T21:47:22.518Z,17.77
2023-07-25T21:49:25.348Z,15.23
2023-07-25T21:51:28.019Z,14.70
2023-07-25T21:53:31.537Z,12.98
2023-07-25T21:55:34.337Z,15.10
2023-07-25T21:57:40.090Z,12.80
2023-07-25T21:59:43.146Z,14.27
2023-07-25T22:01:45.858Z,13.63
2023-07-25T22:03:49.993Z,14.77
2023-07-25T22:05:51.811Z,15.55
2023-07-25T22:07:54.680Z,14.32
2023-07-25T22:09:57.390Z,14.02
2023-07-25T22:12:00.057Z,13.55
2023-07-25T22:14:02.759Z,13.75
2023-07-25T22:16:06.032Z,13.57
2023-07-25T22:18:08.950Z,13.95
2023-07-25T22:20:13.534Z,13.63
2023-07-25T22:22:16.336Z,15.18
2023-07-25T22:24:19.023Z,15.52
2023-07-25T22:26:21.739Z,14.13
2023-07-25T22:28:24.396Z,13.18
2023-07-25T22:30:27.126Z,15.88
2023-07-25T22:32:29.875Z,15.25
2023-07-25T22:34:32.623Z,16.23
2023-07-25T22:36:36.698Z,14.10
2023-07-25T22:38:39.478Z,15.55
2023-07-25T22:40:42.174Z,13.43
2023-07-25T22:42:44.910Z,15.25
2023-07-25T22:44:47.559Z,15.80
2023-07-25T22:46:50.262Z,16.17
2023-07-25T22:48:53.053Z,15.27
2023-07-25T22:50:54.912Z,16.33
2023-07-25T22:52:59.006Z,15.50
2023-07-25T22:55:01.760Z,16.52
2023-07-25T22:57:04.893Z,16.35
2023-07-25T22:59:07.668Z,14.93
2023-07-25T23:01:10.409Z,14.32
2023-07-25T23:03:13.191Z,16.33
2023-07-25T23:05:15.873Z,16.83
2023-07-25T23:07:18.552Z,13.35
2023-07-25T23:09:22.808Z,18.25
2023-07-25T23:11:24.618Z,17.48
2023-07-25T23:13:27.440Z,14.63
2023-07-25T23:15:30.134Z,14.20
2023-07-25T23:17:32.980Z,15.15
2023-07-25T23:19:34.813Z,13.38
2023-07-25T23:21:37.513Z,16.05
2023-07-25T23:23:40.279Z,14.70
2023-07-25T23:25:45.067Z,15.55
2023-07-25T23:27:47.810Z,17.85
2023-07-25T23:29:50.514Z,16.38
2023-07-25T23:31:53.183Z,15.77
2023-07-25T23:33:55.912Z,14.15
2023-07-25T23:35:58.633Z,15.63
2023-07-25T23:38:01.373Z,16.63
2023-07-25T23:40:05.456Z,17.42
2023-07-25T23:42:08.774Z,15.35
2023-07-25T23:44:11.476Z,16.40
2023-07-25T23:46:14.179Z,20.23
2023-07-25T23:48:19.576Z,17.40
2023-07-25T23:50:23.447Z,17.15
2023-07-25T23:52:26.264Z,20.30
2023-07-25T23:54:29.008Z,21.23
2023-07-25T23:56:32.082Z,19.55
2023-07-25T23:58:36.532Z,18.40
